KPZQ METAR Reports


Rogers City, Presque Isle County Airport, MI, United States (KPZQ) 45-24-25N 083-48-46W
Jun 17, 2019 - 07:39 PM EDT / 2019.06.17 2339 UTC
Wind: from the ENE (070 degrees) at 3 MPH (3 KT):0
Visibility: 10 mile(s):0
Sky conditions: clear
Temperature: 66.6 F (19.2 C)
Dew Point: 50.2 F (10.1 C)
Relative Humidity: 55%
Pressure (altimeter): 30.01 in. Hg (1016 hPa)
ob: KPZQ 172339Z AUTO 07003KT 10SM CLR 19/10 A3001 RMK AO2 T01920101
cycle: 23

 

Rogers City METAR Meteogram

Weather Chart

Nearby METAR Reports

KPZQ - Rogers City, Michigan, USA
Distance from station: SSW 1mi, 2km
Updated: Mon, 17-Jun-2019 7:16pm EDT
NOT Current
Clear
Clear
 Wind from E
Wind: E 6 mph , 9 km/h
Temperature: 66°F , 19°C
Dew Point: 50°F , 10°C
Humidity: 56%
Barometer: 30.00 inHg , 1015.9 hPa
Clouds: Clear
Visibility: 10 miles , 16 km
2019/06/17 23:16 KPZQ 172316Z AUTO 08005KT 10SM CLR 19/10 A3000 RMK AO2 T01930098
KAPN - Alpena, Michigan, USA
Distance from station: SSE 27mi, 43km
Updated: Mon, 17-Jun-2019 6:54pm EDT
NOT Current
Clear
Clear
 Wind from E
Wind: E 8 mph , 13 km/h
Temperature: 66°F , 19°C
Dew Point: 48°F , 9°C
Humidity: 52%
Barometer: 30.00 inHg , 1015.9 hPa
Clouds: Clear
Visibility: 10 miles , 16 km
2019/06/17 22:54 KAPN 172254Z AUTO 10007KT 10SM CLR 19/09 A3000 RMK AO2 SLP160 T01940094
 
KSLH - Cheboygan, Michigan, USA
Distance from station: WNW 38mi, 61km
Updated: Mon, 17-Jun-2019 7:38pm EDT
Clear
Clear
 Wind from NNE
Wind: NNE 5 mph , 7 km/h
Temperature: 64°F , 18°C
Dew Point: 46°F , 8°C
Humidity: 52%
Barometer: 29.98 inHg , 1015.2 hPa
Clouds: Clear
Visibility: 10 miles , 16 km
2019/06/17 23:38 KSLH 172338Z AUTO 03004KT 10SM CLR 18/08 A2998 RMK AO2 T01810081
KDRM - Drummond Is, Michigan, USA
Distance from station: N 40mi, 65km
Updated: Mon, 17-Jun-2019 7:37pm EDT
Clear
Clear
 Wind from calm
Wind: Calm
Temperature: 66°F , 19°C
Dew Point: 46°F , 8°C
Humidity: 49%
Barometer: 29.99 inHg , 1015.6 hPa
Clouds: Clear
Visibility: 10 miles , 16 km
2019/06/17 23:37 KDRM 172337Z AUTO 00000KT 10SM CLR 19/08 A2999 RMK AO2 T01880084
 
KPLN - Pellston, Michigan, USA
Distance from station: WNW 49mi, 79km
Updated: Mon, 17-Jun-2019 6:54pm EDT
NOT Current
Clear
Clear
 Wind from N
Wind: N 12 mph , 19 km/h
Temperature: 73°F , 23°C
Dew Point: 48°F , 9°C
Humidity: 41%
Barometer: 29.99 inHg , 1015.6 hPa
Clouds: Clear
Visibility: 10 miles , 16 km
2019/06/17 22:54 KPLN 172254Z AUTO 35010KT 10SM CLR 23/09 A2999 RMK AO2 SLP157 T02280089
KMCD - Mackinac Island, Michigan, USA
Distance from station: NW 50mi, 80km
Updated: Mon, 17-Jun-2019 7:37pm EDT
Partly cloudy
Partly cloudy
 Wind from SE
Wind: SE 3 mph , 6 km/h
Temperature: 66°F , 19°C
Dew Point: 48°F , 9°C
Humidity: 52%
Barometer: 29.99 inHg , 1015.6 hPa
Clouds: Partly cloudy
Visibility: 10 miles , 16 km
Cloud details: Partly cloudy 11000 ft
2019/06/17 23:37 KMCD 172337Z AUTO 14003KT 10SM SCT110 19/09 A2999 RMK AO2 T01850087